createdAt,value
2024-04-30T04:08:27.275Z,95180.00
2024-04-30T04:09:27.239Z,95175.00
2024-04-30T04:10:27.298Z,95168.00
2024-04-30T04:11:27.322Z,95170.00
2024-04-30T04:12:27.261Z,95174.00
2024-04-30T04:13:27.352Z,95181.00
2024-04-30T04:14:27.290Z,95180.00
2024-04-30T04:15:27.284Z,95175.00
2024-04-30T04:16:27.280Z,95177.00
2024-04-30T04:17:27.347Z,95183.00
2024-04-30T04:18:27.347Z,95179.00
2024-04-30T04:19:27.288Z,95182.00
2024-04-30T04:20:27.288Z,95179.00
2024-04-30T04:21:27.287Z,95178.00
2024-04-30T04:22:27.321Z,95178.00
2024-04-30T04:23:27.281Z,95179.00
2024-04-30T04:24:27.282Z,95181.00
2024-04-30T04:25:27.297Z,95182.00
2024-04-30T04:26:27.285Z,95178.00
2024-04-30T04:27:27.291Z,95177.00
2024-04-30T04:28:27.312Z,95174.00
2024-04-30T04:29:27.323Z,95175.00
2024-04-30T04:30:27.285Z,95176.00
2024-04-30T04:31:34.526Z,95174.00
2024-04-30T04:32:34.593Z,95177.00
2024-04-30T04:33:34.452Z,95180.00
2024-04-30T04:34:34.552Z,95182.00
2024-04-30T04:35:34.453Z,95183.00
2024-04-30T04:36:34.445Z,95176.00
2024-04-30T04:37:34.450Z,95178.00
2024-04-30T04:38:34.488Z,95180.00
2024-04-30T04:39:34.440Z,95178.00
2024-04-30T04:40:34.499Z,95182.00
2024-04-30T04:41:34.464Z,95179.00
2024-04-30T04:42:34.456Z,95184.00
2024-04-30T04:43:34.472Z,95187.00
2024-04-30T04:44:34.457Z,95189.00
2024-04-30T04:45:34.456Z,95187.00
2024-04-30T04:46:34.522Z,95187.00
2024-04-30T04:47:34.534Z,95185.00
2024-04-30T04:48:34.573Z,95188.00
2024-04-30T04:49:34.487Z,95188.00
2024-04-30T04:50:34.459Z,95188.00
2024-04-30T04:51:34.471Z,95184.00
2024-04-30T04:52:34.565Z,95190.00
2024-04-30T04:53:34.456Z,95190.00
2024-04-30T04:54:34.459Z,95191.00
2024-04-30T04:55:34.483Z,95189.00
2024-04-30T04:56:34.552Z,95193.00
2024-04-30T04:57:34.455Z,95191.00
2024-04-30T04:58:34.535Z,95193.00
2024-04-30T04:59:34.475Z,95190.00
2024-04-30T05:00:34.484Z,95190.00
2024-04-30T05:01:34.506Z,95192.00
2024-04-30T05:02:34.505Z,95192.00
2024-04-30T05:03:34.512Z,95192.00
2024-04-30T05:04:34.528Z,95189.00
2024-04-30T05:05:34.455Z,95186.00
2024-04-30T05:06:34.445Z,95187.00
2024-04-30T05:07:34.542Z,95189.00
2024-04-30T05:08:34.465Z,95190.00
2024-04-30T05:09:34.450Z,95193.00
2024-04-30T05:10:34.608Z,95197.00
2024-04-30T05:11:34.497Z,95199.00
2024-04-30T05:12:35.496Z,95197.00
2024-04-30T05:13:34.584Z,95200.00
2024-04-30T05:14:34.469Z,95199.00
2024-04-30T05:15:34.485Z,95199.00
2024-04-30T05:16:34.539Z,95199.00
2024-04-30T05:17:34.605Z,95201.00
2024-04-30T05:18:34.480Z,95202.00
2024-04-30T05:19:34.760Z,95203.00
2024-04-30T05:20:34.507Z,95202.00
2024-04-30T05:21:34.491Z,95200.00
2024-04-30T05:22:34.614Z,95195.00
2024-04-30T05:23:34.515Z,95198.00
2024-04-30T05:24:34.475Z,95199.00
2024-04-30T05:25:34.544Z,95199.00
2024-04-30T05:26:34.473Z,95195.00
2024-04-30T05:27:34.492Z,95193.00
2024-04-30T05:28:34.643Z,95192.00
2024-04-30T05:29:34.484Z,95195.00
2024-04-30T05:30:34.470Z,95195.00
2024-04-30T05:31:34.570Z,95195.00
2024-04-30T05:32:34.536Z,95197.00
2024-04-30T05:33:34.704Z,95191.00
2024-04-30T05:34:34.565Z,95184.00
2024-04-30T05:35:34.498Z,95180.00
2024-04-30T05:36:34.481Z,95182.00
2024-04-30T05:37:34.565Z,95181.00
2024-04-30T05:38:34.487Z,95181.00
2024-04-30T05:39:34.481Z,95182.00
2024-04-30T05:40:34.516Z,95179.00
2024-04-30T05:41:34.485Z,95177.00
2024-04-30T05:42:34.532Z,95176.00
2024-04-30T05:43:34.541Z,95173.00
2024-04-30T05:44:34.476Z,95167.00
2024-04-30T05:45:34.507Z,95163.00
2024-04-30T05:46:34.535Z,95163.00
2024-04-30T05:47:34.510Z,95164.00
2024-04-30T05:48:34.486Z,95165.00
2024-04-30T05:49:34.722Z,95167.00
2024-04-30T05:50:34.517Z,95164.00
2024-04-30T05:51:34.526Z,95164.00
2024-04-30T05:52:34.678Z,95162.00
2024-04-30T05:53:34.531Z,95159.00
2024-04-30T05:54:34.568Z,95152.00
2024-04-30T05:55:34.673Z,95152.00
2024-04-30T05:56:34.708Z,95159.00
2024-04-30T05:57:34.804Z,95166.00
2024-04-30T05:58:34.974Z,95172.00
2024-04-30T05:59:34.909Z,95170.00
2024-04-30T06:00:34.989Z,95169.00
2024-04-30T06:01:35.027Z,95169.00
2024-04-30T06:02:35.090Z,95169.00
2024-04-30T06:03:35.176Z,95169.00
2024-04-30T06:04:35.301Z,95169.00
2024-04-30T06:05:35.335Z,95170.00
2024-04-30T06:06:35.237Z,95169.00
2024-04-30T06:07:35.306Z,95171.00
2024-04-30T06:08:37.307Z,95174.00
2024-04-30T06:09:35.281Z,95181.00
2024-04-30T06:10:35.322Z,95182.00
2024-04-30T06:11:35.360Z,95181.00
2024-04-30T06:12:36.095Z,95179.00
2024-04-30T06:13:35.406Z,95177.00
2024-04-30T06:14:35.289Z,95181.00
2024-04-30T06:15:35.289Z,95184.00
2024-04-30T06:16:35.347Z,95185.00
2024-04-30T06:17:35.350Z,95184.00
2024-04-30T06:18:35.342Z,95183.00
2024-04-30T06:19:35.421Z,95184.00
2024-04-30T06:20:35.311Z,95190.00
2024-04-30T06:21:38.406Z,95193.00
2024-04-30T06:22:35.391Z,95186.00
2024-04-30T06:23:35.304Z,95170.00
2024-04-30T06:24:35.315Z,95169.00
2024-04-30T06:25:35.386Z,95184.00
2024-04-30T06:26:35.317Z,95191.00
2024-04-30T06:27:35.290Z,95193.00
2024-04-30T06:28:35.341Z,95192.00
2024-04-30T06:29:35.303Z,95182.00
2024-04-30T06:30:35.323Z,95176.00
2024-04-30T06:31:35.354Z,95171.00
2024-04-30T06:32:35.411Z,95169.00
2024-04-30T06:33:35.412Z,95169.00
2024-04-30T06:34:35.356Z,95166.00
2024-04-30T06:35:35.297Z,95171.00
2024-04-30T06:36:35.323Z,95173.00
2024-04-30T06:37:35.341Z,95176.00
2024-04-30T06:38:35.330Z,95176.00
2024-04-30T06:39:35.332Z,95170.00
2024-04-30T06:40:35.335Z,95169.00
2024-04-30T06:41:35.344Z,95168.00
2024-04-30T06:42:35.339Z,95166.00
2024-04-30T06:43:35.408Z,95172.00
2024-04-30T06:44:35.341Z,95178.00
2024-04-30T06:45:35.345Z,95180.00
2024-04-30T06:46:35.361Z,95175.00
2024-04-30T06:47:35.373Z,95170.00
2024-04-30T06:48:35.433Z,95164.00
2024-04-30T06:49:35.356Z,95152.00
2024-04-30T06:50:35.323Z,95160.00
2024-04-30T06:51:35.318Z,95165.00
2024-04-30T06:52:35.399Z,95160.00
2024-04-30T06:53:35.461Z,95157.00
2024-04-30T06:54:35.357Z,95157.00
2024-04-30T06:55:35.518Z,95161.00
2024-04-30T06:56:35.353Z,95161.00
2024-04-30T06:57:35.365Z,95156.00
2024-04-30T06:58:35.436Z,95155.00
2024-04-30T06:59:35.389Z,95155.00
2024-04-30T07:00:35.377Z,95156.00
2024-04-30T07:01:35.423Z,95151.00
2024-04-30T07:02:35.364Z,95150.00
2024-04-30T07:03:35.386Z,95145.00
2024-04-30T07:04:35.477Z,95139.00
2024-04-30T07:05:35.377Z,95135.00
2024-04-30T07:06:35.404Z,95133.00
2024-04-30T07:07:35.528Z,95124.00
2024-04-30T07:08:35.380Z,95118.00
2024-04-30T07:09:35.406Z,95120.00
2024-04-30T07:10:35.416Z,95113.00
2024-04-30T07:11:35.434Z,95120.00
2024-04-30T07:12:35.364Z,95122.00
2024-04-30T07:13:37.169Z,95120.00
2024-04-30T07:14:35.395Z,95116.00
2024-04-30T07:15:35.355Z,95114.00
2024-04-30T07:16:35.388Z,95118.00
2024-04-30T07:17:35.426Z,95120.00
2024-04-30T07:18:35.673Z,95123.00
2024-04-30T07:19:35.608Z,95118.00
2024-04-30T07:20:35.390Z,95117.00
2024-04-30T07:21:35.365Z,95111.00
2024-04-30T07:22:35.469Z,95109.00
2024-04-30T07:23:35.370Z,95106.00
2024-04-30T07:24:35.385Z,95104.00
2024-04-30T07:25:35.391Z,95102.00
2024-04-30T07:26:35.384Z,95104.00
2024-04-30T07:27:35.388Z,95109.00
2024-04-30T07:28:35.533Z,95114.00
2024-04-30T07:29:35.479Z,95105.00
2024-04-30T07:30:35.512Z,95091.00
2024-04-30T07:31:37.622Z,95089.00
2024-04-30T07:32:35.610Z,95091.00
2024-04-30T07:33:35.634Z,95085.00
2024-04-30T07:34:35.645Z,95091.00
2024-04-30T07:35:35.555Z,95096.00
2024-04-30T07:36:35.557Z,95086.00
2024-04-30T07:37:35.581Z,95087.00
2024-04-30T07:38:35.568Z,95090.00
2024-04-30T07:39:35.575Z,95083.00
2024-04-30T07:40:35.628Z,95086.00
2024-04-30T07:41:35.590Z,95084.00
2024-04-30T07:42:35.553Z,95084.00
2024-04-30T07:43:35.652Z,95073.00
2024-04-30T07:44:35.607Z,95069.00
2024-04-30T07:45:35.600Z,95070.00
2024-04-30T07:46:35.691Z,95073.00
2024-04-30T07:47:35.641Z,95073.00
2024-04-30T07:48:35.616Z,95074.00
2024-04-30T07:49:35.700Z,95070.00
2024-04-30T07:50:35.594Z,95071.00
2024-04-30T07:51:35.580Z,95073.00
2024-04-30T07:52:35.761Z,95073.00
2024-04-30T07:53:35.602Z,95067.00
2024-04-30T07:54:35.597Z,95067.00
2024-04-30T07:55:35.727Z,95067.00
2024-04-30T07:56:35.606Z,95061.00
2024-04-30T07:57:35.586Z,95062.00
2024-04-30T07:58:35.663Z,95068.00
2024-04-30T07:59:35.605Z,95072.00
2024-04-30T08:00:35.605Z,95072.00
2024-04-30T08:01:35.632Z,95090.00
2024-04-30T08:02:35.671Z,95083.00
2024-04-30T08:03:35.623Z,95070.00
2024-04-30T08:04:35.647Z,95063.00
2024-04-30T08:05:42.744Z,95066.00
2024-04-30T08:06:36.627Z,95055.00
2024-04-30T08:07:35.724Z,95055.00
2024-04-30T08:08:35.610Z,95061.00
2024-04-30T08:09:35.618Z,95063.00
2024-04-30T08:10:35.658Z,95062.00
2024-04-30T08:11:35.646Z,95071.00
2024-04-30T08:12:35.628Z,95073.00
2024-04-30T08:13:35.668Z,95073.00
2024-04-30T08:14:37.135Z,95053.00
2024-04-30T08:15:35.629Z,95087.00
2024-04-30T08:16:35.744Z,95064.00
2024-04-30T08:17:35.774Z,95071.00
2024-04-30T08:18:35.721Z,95075.00
2024-04-30T08:19:35.719Z,95034.00
2024-04-30T08:20:35.747Z,95052.00
2024-04-30T08:21:35.789Z,95040.00
2024-04-30T08:22:35.789Z,95039.00
2024-04-30T08:23:35.795Z,95048.00
2024-04-30T08:24:35.850Z,95051.00
2024-04-30T08:25:36.009Z,95038.00
2024-04-30T08:26:35.897Z,95060.00
2024-04-30T08:27:35.948Z,95044.00
2024-04-30T08:28:36.105Z,95039.00
2024-04-30T08:29:36.054Z,95036.00
2024-04-30T08:30:36.097Z,95052.00
2024-04-30T08:31:36.155Z,95029.00
2024-04-30T08:32:36.178Z,95039.00
2024-04-30T08:33:36.412Z,95029.00
2024-04-30T08:34:36.292Z,95021.00
2024-04-30T08:35:36.300Z,95023.00
2024-04-30T08:36:36.405Z,95028.00
2024-04-30T08:37:40.414Z,95028.00
2024-04-30T08:38:37.381Z,95035.00
2024-04-30T08:39:36.365Z,95031.00
2024-04-30T08:40:36.414Z,95029.00
2024-04-30T08:41:36.376Z,95026.00
2024-04-30T08:42:36.377Z,95038.00
2024-04-30T08:43:36.399Z,95040.00
2024-04-30T08:44:36.400Z,95038.00
2024-04-30T08:45:36.394Z,95043.00
2024-04-30T08:46:36.473Z,95052.00
2024-04-30T08:47:36.463Z,95043.00
2024-04-30T08:48:36.403Z,95062.00
2024-04-30T08:49:46.248Z,95057.00
2024-04-30T08:50:37.427Z,95055.00
2024-04-30T08:51:36.402Z,95047.00
2024-04-30T08:52:36.423Z,95051.00
2024-04-30T08:53:36.387Z,95038.00
2024-04-30T08:54:36.419Z,95039.00
2024-04-30T08:55:36.513Z,95053.00
2024-04-30T08:56:36.397Z,95036.00
2024-04-30T08:57:36.404Z,95045.00
2024-04-30T08:58:36.489Z,95029.00
2024-04-30T08:59:36.424Z,95026.00
2024-04-30T09:00:36.430Z,95051.00
2024-04-30T09:01:36.425Z,95035.00
2024-04-30T09:02:36.582Z,95046.00
2024-04-30T09:03:36.532Z,95038.00
2024-04-30T09:04:36.653Z,95047.00
2024-04-30T09:05:36.647Z,95029.00
2024-04-30T09:06:36.686Z,95026.00
2024-04-30T09:07:37.020Z,95037.00
2024-04-30T09:08:36.751Z,95040.00
2024-04-30T09:09:36.786Z,95044.00
2024-04-30T09:10:36.866Z,95042.00
2024-04-30T09:11:36.911Z,95012.00
2024-04-30T09:12:36.883Z,95028.00
2024-04-30T09:13:37.089Z,95037.00
2024-04-30T09:14:36.920Z,95023.00
2024-04-30T09:15:36.917Z,95018.00
2024-04-30T09:16:37.015Z,95032.00
2024-04-30T09:17:36.984Z,95067.00
2024-04-30T09:18:36.951Z,95031.00
2024-04-30T09:19:37.010Z,95040.00
2024-04-30T09:20:37.035Z,95039.00
2024-04-30T09:21:37.096Z,95029.00
2024-04-30T09:22:37.092Z,95024.00
2024-04-30T09:23:37.085Z,95024.00
2024-04-30T09:24:37.102Z,95022.00
2024-04-30T09:25:37.364Z,95013.00
2024-04-30T09:26:37.217Z,95015.00
2024-04-30T09:27:37.218Z,95029.00
2024-04-30T09:28:37.358Z,95020.00
2024-04-30T09:29:38.401Z,95024.00
2024-04-30T09:30:37.237Z,95004.00
2024-04-30T09:31:37.465Z,95010.00
2024-04-30T09:32:37.351Z,95012.00
2024-04-30T09:33:37.405Z,95028.00
2024-04-30T09:34:37.337Z,95023.00
2024-04-30T09:35:37.320Z,95013.00
2024-04-30T09:36:37.412Z,95016.00
2024-04-30T09:37:37.462Z,95017.00
2024-04-30T09:38:37.384Z,95026.00
2024-04-30T09:39:37.392Z,95009.00
2024-04-30T09:40:37.658Z,94976.00
2024-04-30T09:41:37.480Z,95016.00
2024-04-30T09:42:40.954Z,94996.00
2024-04-30T09:43:37.655Z,95003.00
2024-04-30T09:44:37.584Z,95007.00
2024-04-30T09:45:37.615Z,95019.00
2024-04-30T09:46:37.760Z,95032.00
2024-04-30T09:47:37.626Z,95022.00
2024-04-30T09:48:37.588Z,95016.00
2024-04-30T09:49:37.678Z,95008.00
2024-04-30T09:50:37.611Z,95001.00
2024-04-30T09:51:37.946Z,95023.00
2024-04-30T09:52:37.689Z,95005.00
2024-04-30T09:53:37.606Z,95009.00
2024-04-30T09:54:37.620Z,95005.00
2024-04-30T09:55:37.909Z,95005.00
2024-04-30T09:56:37.597Z,95009.00
2024-04-30T09:57:37.618Z,94998.00
2024-04-30T09:58:37.704Z,94999.00
2024-04-30T09:59:37.634Z,95026.00
2024-04-30T10:00:37.657Z,95015.00
2024-04-30T10:01:37.656Z,95002.00
2024-04-30T10:02:37.634Z,95017.00
2024-04-30T10:03:37.624Z,94983.00
2024-04-30T10:04:37.652Z,94991.00
2024-04-30T10:05:37.615Z,94981.00
2024-04-30T10:06:37.631Z,94988.00
2024-04-30T10:07:37.651Z,94982.00
2024-04-30T10:08:37.622Z,94985.00
2024-04-30T10:09:37.647Z,94999.00
2024-04-30T10:10:37.654Z,94996.00
2024-04-30T10:11:37.655Z,95001.00
2024-04-30T10:12:37.632Z,94998.00
2024-04-30T10:13:37.634Z,94990.00
2024-04-30T10:14:37.650Z,94987.00
2024-04-30T10:15:37.648Z,94992.00
2024-04-30T10:16:37.650Z,94988.00
2024-04-30T10:17:37.784Z,94975.00
2024-04-30T10:18:37.643Z,94979.00
2024-04-30T10:19:37.691Z,94983.00
2024-04-30T10:20:37.635Z,94996.00
2024-04-30T10:21:37.686Z,94971.00
2024-04-30T10:22:37.700Z,94964.00
2024-04-30T10:23:37.663Z,94964.00
2024-04-30T10:24:37.658Z,94964.00
2024-04-30T10:25:37.679Z,94959.00
2024-04-30T10:26:37.653Z,94962.00
2024-04-30T10:27:37.663Z,94960.00
2024-04-30T10:28:37.736Z,94962.00
2024-04-30T10:29:37.646Z,94955.00
2024-04-30T10:30:37.659Z,94966.00
2024-04-30T10:31:37.812Z,94958.00
2024-04-30T10:32:37.868Z,94942.00
2024-04-30T10:33:37.942Z,94949.00
2024-04-30T10:34:38.019Z,94944.00
2024-04-30T10:35:38.032Z,94944.00
2024-04-30T10:36:38.103Z,94954.00
2024-04-30T10:37:38.254Z,94944.00
2024-04-30T10:38:38.221Z,94949.00
2024-04-30T10:39:38.274Z,94952.00
2024-04-30T10:40:38.505Z,94946.00
2024-04-30T10:41:38.413Z,94936.00
2024-04-30T10:42:38.433Z,94929.00
2024-04-30T10:43:38.631Z,94919.00
2024-04-30T10:44:38.613Z,94925.00
2024-04-30T10:45:38.653Z,94940.00
2024-04-30T10:46:38.760Z,94923.00
2024-04-30T10:47:38.844Z,94929.00
2024-04-30T10:48:38.879Z,94924.00
2024-04-30T10:49:38.955Z,94932.00
2024-04-30T10:50:38.967Z,94938.00
2024-04-30T10:51:39.047Z,94930.00
2024-04-30T10:52:39.165Z,94932.00
2024-04-30T10:53:39.179Z,94936.00
2024-04-30T10:54:39.262Z,94931.00
2024-04-30T10:55:39.368Z,94929.00
2024-04-30T10:56:39.400Z,94928.00
2024-04-30T10:57:39.428Z,94922.00
2024-04-30T10:58:39.530Z,94922.00
2024-04-30T10:59:39.544Z,94910.00
2024-04-30T11:00:39.615Z,94911.00
2024-04-30T11:01:39.684Z,94916.00
2024-04-30T11:02:39.750Z,94917.00
2024-04-30T11:03:39.793Z,94921.00
2024-04-30T11:04:39.951Z,94912.00
2024-04-30T11:05:39.949Z,94910.00
2024-04-30T11:06:40.038Z,94922.00
2024-04-30T11:07:40.114Z,94902.00
2024-04-30T11:08:40.083Z,94915.00
2024-04-30T11:09:40.168Z,94900.00
2024-04-30T11:10:40.256Z,94900.00
2024-04-30T11:11:40.245Z,94915.00
2024-04-30T11:12:40.277Z,94903.00
2024-04-30T11:13:40.406Z,94901.00
2024-04-30T11:14:40.370Z,94899.00
2024-04-30T11:15:40.407Z,94898.00
2024-04-30T11:16:40.442Z,94900.00
2024-04-30T11:17:40.561Z,94910.00
2024-04-30T11:18:40.546Z,94910.00
2024-04-30T11:19:40.575Z,94907.00
2024-04-30T11:20:40.540Z,94905.00
2024-04-30T11:21:40.561Z,94903.00
2024-04-30T11:22:40.761Z,94899.00
2024-04-30T11:23:40.600Z,94902.00
2024-04-30T11:24:40.616Z,94892.00
2024-04-30T11:25:40.619Z,94893.00
2024-04-30T11:26:40.635Z,94877.00
2024-04-30T11:27:40.617Z,94879.00
2024-04-30T11:28:40.705Z,94881.00
2024-04-30T11:29:40.890Z,94885.00
2024-04-30T11:30:40.796Z,94882.00
2024-04-30T11:31:40.669Z,94879.00
2024-04-30T11:32:40.742Z,94890.00
2024-04-30T11:33:40.652Z,94878.00
2024-04-30T11:34:40.770Z,94882.00
2024-04-30T11:35:40.612Z,94876.00
2024-04-30T11:36:40.614Z,94874.00
2024-04-30T11:37:40.635Z,94878.00
2024-04-30T11:38:40.768Z,94882.00
2024-04-30T11:39:40.653Z,94882.00
2024-04-30T11:40:40.692Z,94882.00
2024-04-30T11:41:45.823Z,94882.00
2024-04-30T11:42:44.876Z,94872.00
2024-04-30T11:43:40.720Z,94877.00
2024-04-30T11:44:40.623Z,94865.00
2024-04-30T11:45:40.641Z,94856.00
2024-04-30T11:46:40.735Z,94857.00
2024-04-30T11:47:40.682Z,94857.00
2024-04-30T11:48:40.738Z,94859.00
2024-04-30T11:49:40.803Z,94851.00
2024-04-30T11:50:40.648Z,94857.00
2024-04-30T11:51:40.628Z,94862.00
2024-04-30T11:52:41.012Z,94859.00
2024-04-30T11:53:40.715Z,94860.00
2024-04-30T11:54:40.676Z,94864.00
2024-04-30T11:55:40.719Z,94855.00
2024-04-30T11:56:40.692Z,94859.00
2024-04-30T11:57:40.661Z,94853.00
2024-04-30T11:58:40.713Z,94852.00
2024-04-30T11:59:40.656Z,94840.00
2024-04-30T12:00:40.856Z,94839.00
2024-04-30T12:01:40.679Z,94846.00
2024-04-30T12:02:40.720Z,94844.00
2024-04-30T12:03:40.683Z,94839.00
2024-04-30T12:04:40.934Z,94838.00
2024-04-30T12:05:40.732Z,94839.00
2024-04-30T12:06:40.740Z,94837.00
2024-04-30T12:07:40.815Z,94835.00
2024-04-30T12:08:40.817Z,94836.00
2024-04-30T12:09:40.846Z,94836.00
2024-04-30T12:10:40.943Z,94833.00
2024-04-30T12:11:41.023Z,94835.00
2024-04-30T12:12:40.973Z,94835.00
2024-04-30T12:13:41.047Z,94834.00
2024-04-30T12:14:41.059Z,94836.00
2024-04-30T12:15:41.108Z,94835.00
2024-04-30T12:16:43.070Z,94833.00
2024-04-30T12:17:41.260Z,94834.00
2024-04-30T12:18:41.114Z,94832.00
2024-04-30T12:19:41.210Z,94829.00
2024-04-30T12:20:41.136Z,94828.00
2024-04-30T12:21:41.137Z,94828.00
2024-04-30T12:22:41.208Z,94828.00
2024-04-30T12:23:41.137Z,94827.00
2024-04-30T12:24:41.136Z,94825.00
2024-04-30T12:25:41.183Z,94827.00
2024-04-30T12:26:41.121Z,94824.00
2024-04-30T12:27:41.144Z,94824.00
2024-04-30T12:28:41.186Z,94824.00
2024-04-30T12:29:41.138Z,94821.00
2024-04-30T12:30:41.137Z,94822.00
2024-04-30T12:31:41.343Z,94821.00
2024-04-30T12:32:41.171Z,94821.00
2024-04-30T12:33:41.261Z,94822.00
2024-04-30T12:34:41.305Z,94821.00
2024-04-30T12:35:41.159Z,94820.00
2024-04-30T12:36:41.152Z,94818.00
2024-04-30T12:37:41.196Z,94820.00
2024-04-30T12:38:41.147Z,94820.00
2024-04-30T12:39:41.148Z,94820.00
2024-04-30T12:40:41.200Z,94820.00
2024-04-30T12:41:41.171Z,94820.00
2024-04-30T12:42:41.170Z,94817.00
2024-04-30T12:43:41.171Z,94817.00
2024-04-30T12:44:41.195Z,94817.00
2024-04-30T12:45:41.153Z,94815.00
2024-04-30T12:46:41.244Z,94812.00
2024-04-30T12:47:41.245Z,94808.00
2024-04-30T12:48:41.238Z,94807.00
2024-04-30T12:49:41.335Z,94809.00
2024-04-30T12:50:41.171Z,94807.00
2024-04-30T12:51:41.171Z,94806.00
2024-04-30T12:52:41.206Z,94805.00
2024-04-30T12:53:41.152Z,94804.00
2024-04-30T12:54:41.160Z,94806.00
2024-04-30T12:55:41.207Z,94800.00
2024-04-30T12:56:41.176Z,94800.00
2024-04-30T12:57:41.203Z,94796.00
2024-04-30T12:58:41.212Z,94797.00
2024-04-30T12:59:41.191Z,94799.00
2024-04-30T13:00:41.175Z,94794.00
2024-04-30T13:01:41.207Z,94801.00
2024-04-30T13:02:41.204Z,94805.00
2024-04-30T13:03:41.184Z,94805.00
2024-04-30T13:04:41.218Z,94801.00
2024-04-30T13:05:41.178Z,94798.00
2024-04-30T13:06:41.259Z,94798.00
2024-04-30T13:07:41.235Z,94794.00
2024-04-30T13:08:41.177Z,94789.00
2024-04-30T13:09:42.551Z,94790.00
2024-04-30T13:10:41.356Z,94788.00
2024-04-30T13:11:41.222Z,94787.00
2024-04-30T13:12:41.183Z,94784.00
2024-04-30T13:13:41.304Z,94785.00
2024-04-30T13:14:41.184Z,94784.00
2024-04-30T13:15:41.165Z,94781.00
2024-04-30T13:16:41.289Z,94779.00
2024-04-30T13:17:41.215Z,94786.00
2024-04-30T13:18:41.254Z,94786.00
2024-04-30T13:19:41.219Z,94785.00
2024-04-30T13:20:41.199Z,94787.00
2024-04-30T13:21:41.232Z,94786.00
2024-04-30T13:22:41.374Z,94779.00
2024-04-30T13:23:41.335Z,94785.00
2024-04-30T13:24:41.365Z,94778.00
2024-04-30T13:25:41.505Z,94777.00
2024-04-30T13:26:41.472Z,94774.00
2024-04-30T13:27:41.503Z,94780.00
2024-04-30T13:28:41.664Z,94776.00
2024-04-30T13:29:41.613Z,94771.00
2024-04-30T13:30:41.639Z,94768.00
2024-04-30T13:31:41.748Z,94764.00
2024-04-30T13:32:41.787Z,94763.00
2024-04-30T13:33:41.768Z,94762.00
2024-04-30T13:34:41.882Z,94769.00
2024-04-30T13:35:41.842Z,94772.00
2024-04-30T13:36:41.914Z,94772.00
2024-04-30T13:37:42.138Z,94766.00
2024-04-30T13:38:41.984Z,94761.00
2024-04-30T13:39:42.099Z,94756.00
2024-04-30T13:40:42.165Z,94753.00
2024-04-30T13:41:42.127Z,94753.00
2024-04-30T13:42:42.230Z,94753.00
2024-04-30T13:43:42.258Z,94751.00
2024-04-30T13:44:42.316Z,94754.00
2024-04-30T13:45:42.324Z,94755.00
2024-04-30T13:46:42.454Z,94755.00
2024-04-30T13:47:42.481Z,94755.00
2024-04-30T13:48:42.525Z,94755.00
2024-04-30T13:49:42.629Z,94752.00
2024-04-30T13:50:42.518Z,94750.00
2024-04-30T13:51:42.597Z,94750.00
2024-04-30T13:52:42.645Z,94749.00
2024-04-30T13:53:42.674Z,94748.00
2024-04-30T13:54:42.732Z,94748.00
2024-04-30T13:55:42.827Z,94751.00
2024-04-30T13:56:42.853Z,94749.00
2024-04-30T13:57:42.860Z,94745.00
2024-04-30T13:58:43.021Z,94744.00
2024-04-30T13:59:43.015Z,94743.00
2024-04-30T14:00:43.044Z,94739.00
2024-04-30T14:01:43.171Z,94738.00
2024-04-30T14:02:43.163Z,94738.00
2024-04-30T14:03:43.174Z,94735.00
2024-04-30T14:04:43.254Z,94734.00
2024-04-30T14:05:43.227Z,94735.00
2024-04-30T14:06:43.264Z,94737.00
2024-04-30T14:07:43.383Z,94742.00
2024-04-30T14:08:43.325Z,94742.00
2024-04-30T14:09:43.396Z,94739.00
2024-04-30T14:10:43.549Z,94740.00
2024-04-30T14:11:43.470Z,94742.00
2024-04-30T14:12:43.522Z,94741.00
2024-04-30T14:13:43.619Z,94742.00
2024-04-30T14:14:43.594Z,94739.00
2024-04-30T14:15:43.611Z,94742.00
2024-04-30T14:16:43.876Z,94738.00
2024-04-30T14:17:43.707Z,94733.00
2024-04-30T14:18:43.881Z,94729.00
2024-04-30T14:19:43.862Z,94726.00
2024-04-30T14:20:43.834Z,94723.00
2024-04-30T14:21:43.836Z,94724.00
2024-04-30T14:22:44.030Z,94722.00
2024-04-30T14:23:43.955Z,94725.00
2024-04-30T14:24:43.975Z,94723.00
2024-04-30T14:25:44.379Z,94722.00
2024-04-30T14:26:44.086Z,94718.00
2024-04-30T14:27:44.149Z,94715.00
2024-04-30T14:28:44.184Z,94718.00
2024-04-30T14:29:44.212Z,94716.00
2024-04-30T14:30:44.244Z,94720.00
2024-04-30T14:31:44.355Z,94720.00
2024-04-30T14:32:44.451Z,94708.00
2024-04-30T14:33:44.402Z,94705.00
2024-04-30T14:34:44.488Z,94705.00
2024-04-30T14:35:44.487Z,94705.00
2024-04-30T14:36:44.533Z,94706.00
2024-04-30T14:37:44.621Z,94703.00
2024-04-30T14:38:44.615Z,94703.00
2024-04-30T14:39:44.662Z,94700.00
2024-04-30T14:40:44.773Z,94698.00
2024-04-30T14:41:44.755Z,94697.00
2024-04-30T14:42:44.822Z,94696.00
2024-04-30T14:43:45.824Z,94696.00
2024-04-30T14:44:44.893Z,94695.00
2024-04-30T14:45:44.960Z,94693.00
2024-04-30T14:46:45.039Z,94693.00
2024-04-30T14:47:45.848Z,94694.00
2024-04-30T14:48:45.180Z,94693.00
2024-04-30T14:49:45.396Z,94690.00
2024-04-30T14:50:45.220Z,94693.00
2024-04-30T14:51:45.251Z,94691.00
2024-04-30T14:52:45.848Z,94692.00
2024-04-30T14:53:45.357Z,94690.00
2024-04-30T14:54:45.453Z,94690.00
2024-04-30T14:55:45.456Z,94688.00
2024-04-30T14:56:45.476Z,94688.00
2024-04-30T14:57:45.549Z,94684.00
2024-04-30T14:58:45.678Z,94683.00
2024-04-30T14:59:45.680Z,94680.00
2024-04-30T15:00:45.762Z,94677.00
2024-04-30T15:01:45.847Z,94678.00
2024-04-30T15:02:45.821Z,94678.00
2024-04-30T15:03:45.855Z,94676.00
2024-04-30T15:04:45.967Z,94676.00
2024-04-30T15:05:45.933Z,94675.00
2024-04-30T15:06:45.991Z,94672.00
2024-04-30T15:07:46.087Z,94670.00
2024-04-30T15:08:46.068Z,94669.00
2024-04-30T15:09:46.162Z,94664.00
2024-04-30T15:10:46.240Z,94662.00
2024-04-30T15:11:46.191Z,94660.00
2024-04-30T15:12:46.244Z,94660.00
2024-04-30T15:13:46.323Z,94658.00
2024-04-30T15:14:46.344Z,94656.00
2024-04-30T15:15:46.352Z,94654.00
2024-04-30T15:16:47.157Z,94652.00
2024-04-30T15:17:46.538Z,94651.00
2024-04-30T15:18:46.515Z,94649.00
2024-04-30T15:19:46.620Z,94649.00
2024-04-30T15:20:46.582Z,94648.00
2024-04-30T15:21:46.667Z,94647.00
2024-04-30T15:22:46.718Z,94647.00
2024-04-30T15:23:46.748Z,94648.00
2024-04-30T15:24:46.791Z,94647.00
2024-04-30T15:25:46.881Z,94647.00
2024-04-30T15:26:46.857Z,94647.00
2024-04-30T15:27:46.889Z,94644.00
2024-04-30T15:28:46.997Z,94644.00
2024-04-30T15:29:46.995Z,94641.00
2024-04-30T15:30:47.013Z,94635.00
2024-04-30T15:31:47.836Z,94636.00
2024-04-30T15:32:47.086Z,94631.00
2024-04-30T15:33:47.321Z,94629.00
2024-04-30T15:34:47.290Z,94627.00
2024-04-30T15:35:47.152Z,94632.00
2024-04-30T15:36:47.288Z,94627.00
2024-04-30T15:37:47.347Z,94628.00
2024-04-30T15:38:47.305Z,94632.00
2024-04-30T15:39:47.404Z,94627.00
2024-04-30T15:40:47.435Z,94625.00
2024-04-30T15:41:47.377Z,94624.00
2024-04-30T15:42:47.425Z,94623.00
2024-04-30T15:43:47.503Z,94621.00
2024-04-30T15:44:47.669Z,94620.00
2024-04-30T15:45:47.548Z,94618.00
2024-04-30T15:46:47.628Z,94616.00
2024-04-30T15:47:47.713Z,94616.00
2024-04-30T15:48:47.734Z,94615.00
2024-04-30T15:49:47.805Z,94614.00
2024-04-30T15:50:47.700Z,94615.00
2024-04-30T15:51:47.752Z,94612.00
2024-04-30T15:52:47.840Z,94613.00